createdAt,value
2022-11-07T00:00:24.868Z,1.70
2022-11-07T00:02:51.357Z,1.90
2022-11-07T00:05:17.955Z,1.98
2022-11-07T00:07:44.461Z,1.90
2022-11-07T00:10:10.878Z,2.03
2022-11-07T00:12:37.321Z,1.77
2022-11-07T00:15:05.619Z,1.77
2022-11-07T00:17:32.328Z,1.70
2022-11-07T00:19:58.709Z,1.90
2022-11-07T00:22:25.123Z,1.90
2022-11-07T00:24:51.520Z,1.63
2022-11-07T00:27:17.999Z,2.30
2022-11-07T00:29:44.431Z,1.73
2022-11-07T00:32:10.815Z,1.80
2022-11-07T00:34:37.210Z,2.08
2022-11-07T00:37:03.851Z,1.80
2022-11-07T00:39:30.300Z,1.75
2022-11-07T00:41:56.681Z,1.80
2022-11-07T00:44:23.146Z,1.65
2022-11-07T00:46:49.603Z,1.52
2022-11-07T00:49:15.994Z,1.63
2022-11-07T00:51:42.513Z,1.80
2022-11-07T00:54:09.025Z,1.80
2022-11-07T00:56:35.479Z,1.70
2022-11-07T00:59:02.400Z,1.73
2022-11-07T01:01:32.444Z,1.88
2022-11-07T01:04:18.080Z,1.67
2022-11-07T01:06:45.554Z,1.77
2022-11-07T01:09:15.553Z,1.48
2022-11-07T01:11:42.931Z,1.77
2022-11-07T01:14:10.437Z,2.25
2022-11-07T01:16:38.762Z,1.95
2022-11-07T01:19:06.948Z,1.88
2022-11-07T01:21:33.879Z,1.55
2022-11-07T01:24:01.426Z,1.60
2022-11-07T01:26:27.894Z,1.77
2022-11-07T01:28:54.333Z,1.90
2022-11-07T01:31:21.270Z,1.83
2022-11-07T01:33:47.789Z,2.08
2022-11-07T01:36:16.809Z,1.65
2022-11-07T01:38:46.431Z,1.77
2022-11-07T01:41:21.842Z,1.65
2022-11-07T01:44:23.629Z,1.50
2022-11-07T01:46:52.396Z,1.73
2022-11-07T01:49:29.688Z,1.77
2022-11-07T01:52:04.225Z,1.77
2022-11-07T01:54:37.240Z,1.95
2022-11-07T01:57:09.297Z,1.55
2022-11-07T01:59:37.067Z,1.60
2022-11-07T02:02:05.069Z,1.67
2022-11-07T02:04:31.879Z,1.60
2022-11-07T02:07:06.921Z,1.67
2022-11-07T02:09:33.555Z,1.75
2022-11-07T02:12:01.060Z,1.70
2022-11-07T02:14:28.836Z,1.67
2022-11-07T02:16:56.107Z,1.80
2022-11-07T02:19:28.546Z,1.90
2022-11-07T02:22:12.183Z,1.40
2022-11-07T02:24:39.923Z,1.48
2022-11-07T02:27:12.586Z,1.70
2022-11-07T02:29:42.405Z,1.77
2022-11-07T02:32:11.155Z,1.77
2022-11-07T02:34:38.270Z,1.70
2022-11-07T02:37:10.453Z,1.88
2022-11-07T02:39:37.516Z,1.85
2022-11-07T02:42:05.280Z,1.85
2022-11-07T02:44:32.771Z,1.85
2022-11-07T02:46:59.336Z,1.90
2022-11-07T02:49:25.908Z,2.05
2022-11-07T02:51:52.278Z,1.73
2022-11-07T02:54:18.695Z,1.90
2022-11-07T02:56:45.064Z,1.90
2022-11-07T02:59:11.518Z,1.55
2022-11-07T03:01:37.980Z,1.80
2022-11-07T03:04:04.662Z,2.08
2022-11-07T03:06:31.081Z,1.95
2022-11-07T03:08:57.468Z,1.75
2022-11-07T03:11:23.893Z,2.13
2022-11-07T03:13:50.809Z,2.22
2022-11-07T03:16:19.114Z,2.20
2022-11-07T03:18:45.722Z,1.65
2022-11-07T03:21:12.262Z,1.88
2022-11-07T03:23:38.644Z,2.42
2022-11-07T03:26:05.897Z,1.67
2022-11-07T03:28:33.014Z,1.90
2022-11-07T03:31:01.292Z,1.85
2022-11-07T03:33:28.927Z,2.00
2022-11-07T03:35:55.334Z,1.90
2022-11-07T03:38:21.788Z,2.33
2022-11-07T03:40:48.174Z,2.20
2022-11-07T03:43:15.075Z,2.10
2022-11-07T03:45:41.806Z,2.08
2022-11-07T03:48:08.190Z,2.30
2022-11-07T03:50:34.539Z,2.00
2022-11-07T03:53:00.915Z,2.10
2022-11-07T03:55:27.360Z,2.38
2022-11-07T03:57:53.835Z,1.98
2022-11-07T04:00:20.270Z,2.53
2022-11-07T04:02:46.866Z,2.10
2022-11-07T04:05:13.486Z,2.00
2022-11-07T04:07:40.022Z,2.10
2022-11-07T04:10:06.745Z,2.10
2022-11-07T04:12:51.627Z,1.95
2022-11-07T04:15:36.973Z,1.88
2022-11-07T04:18:03.569Z,2.20
2022-11-07T04:20:29.987Z,2.33
2022-11-07T04:22:56.410Z,2.25
2022-11-07T04:25:42.956Z,2.17
2022-11-07T04:28:09.347Z,1.92
2022-11-07T04:30:35.773Z,1.95
2022-11-07T04:33:02.379Z,2.38
2022-11-07T04:35:32.062Z,1.83
2022-11-07T04:37:59.703Z,2.28
2022-11-07T04:40:27.596Z,2.00
2022-11-07T04:42:54.427Z,2.28
2022-11-07T04:45:21.015Z,2.30
2022-11-07T04:47:47.750Z,2.05
2022-11-07T04:50:17.259Z,2.63
2022-11-07T04:52:44.368Z,2.15
2022-11-07T04:55:18.571Z,2.47
2022-11-07T04:57:45.480Z,2.13
2022-11-07T05:00:12.345Z,2.10
2022-11-07T05:02:38.819Z,2.35
2022-11-07T05:05:05.717Z,2.70
2022-11-07T05:07:32.102Z,2.10
2022-11-07T05:09:58.467Z,2.30
2022-11-07T05:12:24.887Z,2.08
2022-11-07T05:14:51.334Z,2.28
2022-11-07T05:17:17.769Z,2.40
2022-11-07T05:19:44.228Z,2.33
2022-11-07T05:22:30.117Z,2.42
2022-11-07T05:24:56.515Z,2.08
2022-11-07T05:27:23.437Z,2.20
2022-11-07T05:29:49.858Z,2.25
2022-11-07T05:32:16.844Z,2.50
2022-11-07T05:34:43.541Z,2.15
2022-11-07T05:37:11.588Z,2.25
2022-11-07T05:39:38.637Z,2.75
2022-11-07T05:42:05.162Z,2.70
2022-11-07T05:44:31.780Z,2.80
2022-11-07T05:46:58.391Z,2.58
2022-11-07T05:49:25.319Z,2.40
2022-11-07T05:51:52.361Z,3.05
2022-11-07T05:54:19.273Z,2.58
2022-11-07T05:56:45.853Z,2.78
2022-11-07T05:59:12.579Z,2.40
2022-11-07T06:01:39.246Z,2.38
2022-11-07T06:04:07.347Z,2.63
2022-11-07T06:06:33.943Z,2.38
2022-11-07T06:09:00.411Z,2.58
2022-11-07T06:11:26.808Z,2.75
2022-11-07T06:13:53.511Z,2.17
2022-11-07T06:16:20.245Z,2.45
2022-11-07T06:18:46.697Z,2.13
2022-11-07T06:21:13.919Z,2.25
2022-11-07T06:23:40.524Z,2.45
2022-11-07T06:26:06.964Z,2.30
2022-11-07T06:28:33.559Z,2.40
2022-11-07T06:31:00.760Z,2.10
2022-11-07T06:33:27.202Z,2.20
2022-11-07T06:35:53.570Z,1.95
2022-11-07T06:38:20.717Z,2.25
2022-11-07T06:40:47.138Z,2.25
2022-11-07T06:43:19.297Z,2.25
2022-11-07T06:45:47.190Z,2.30
2022-11-07T06:48:13.686Z,2.15
2022-11-07T06:50:40.348Z,2.47
2022-11-07T06:53:09.907Z,2.63
2022-11-07T06:55:37.574Z,1.73
2022-11-07T06:58:04.798Z,2.78
2022-11-07T07:00:33.409Z,2.42
2022-11-07T07:02:59.941Z,2.50
2022-11-07T07:05:27.070Z,2.40
2022-11-07T07:07:55.262Z,2.17
2022-11-07T07:10:22.366Z,2.13
2022-11-07T07:12:48.739Z,2.25
2022-11-07T07:15:15.156Z,2.47
2022-11-07T07:17:41.544Z,2.38
2022-11-07T07:20:08.614Z,2.33
2022-11-07T07:22:35.023Z,2.22
2022-11-07T07:25:01.477Z,2.28
2022-11-07T07:27:27.906Z,2.50
2022-11-07T07:29:54.309Z,2.53
2022-11-07T07:32:21.006Z,1.98
2022-11-07T07:34:48.025Z,2.22
2022-11-07T07:37:14.487Z,2.38
2022-11-07T07:39:40.881Z,2.22
2022-11-07T07:42:07.292Z,2.10
2022-11-07T07:44:33.746Z,2.42
2022-11-07T07:47:00.509Z,2.22
2022-11-07T07:49:26.901Z,2.03
2022-11-07T07:51:53.345Z,1.67
2022-11-07T07:54:19.788Z,2.42
2022-11-07T07:56:46.152Z,2.20
2022-11-07T07:59:12.588Z,2.10
2022-11-07T08:01:39.071Z,2.47
2022-11-07T08:04:05.635Z,2.05
2022-11-07T08:06:35.015Z,1.70
2022-11-07T08:09:01.509Z,1.80
2022-11-07T08:11:27.972Z,2.53
2022-11-07T08:13:58.390Z,2.60
2022-11-07T08:16:27.367Z,2.60
2022-11-07T08:18:53.757Z,2.85
2022-11-07T08:21:20.348Z,2.15
2022-11-07T08:23:47.443Z,2.20
2022-11-07T08:26:13.831Z,2.47
2022-11-07T08:28:40.200Z,2.10
2022-11-07T08:31:12.210Z,2.38
2022-11-07T08:33:38.999Z,2.50
2022-11-07T08:36:07.186Z,2.42
2022-11-07T08:38:35.652Z,2.28
2022-11-07T08:41:02.356Z,2.50
2022-11-07T08:43:29.081Z,2.35
2022-11-07T08:45:55.991Z,2.08
2022-11-07T08:48:23.301Z,2.40
2022-11-07T08:50:54.421Z,2.17
2022-11-07T08:53:21.598Z,2.05
2022-11-07T08:55:48.270Z,2.10
2022-11-07T08:58:15.096Z,1.85
2022-11-07T09:00:41.628Z,2.40
2022-11-07T09:03:38.806Z,2.10
2022-11-07T09:05:56.868Z,1.70
2022-11-07T09:08:23.402Z,1.95
2022-11-07T09:10:50.163Z,2.03
2022-11-07T09:13:16.993Z,2.55
2022-11-07T09:15:47.852Z,2.05
2022-11-07T09:18:16.921Z,2.13
2022-11-07T09:20:43.403Z,2.15
2022-11-07T09:23:09.839Z,2.20
2022-11-07T09:25:36.238Z,2.03
2022-11-07T09:28:03.983Z,2.00
2022-11-07T09:30:30.496Z,2.33
2022-11-07T09:32:57.069Z,1.95
2022-11-07T09:35:23.563Z,1.90
2022-11-07T09:37:50.688Z,2.47
2022-11-07T09:40:24.925Z,1.92
2022-11-07T09:43:11.643Z,2.13
2022-11-07T09:45:51.112Z,1.98
2022-11-07T09:48:23.120Z,2.10
2022-11-07T09:50:50.482Z,1.92
2022-11-07T09:53:29.297Z,1.90
2022-11-07T09:55:59.284Z,2.00
2022-11-07T09:58:35.776Z,2.05
2022-11-07T10:01:05.981Z,1.85
2022-11-07T10:03:38.004Z,2.20
2022-11-07T10:06:24.788Z,2.28
2022-11-07T10:09:11.217Z,2.50
2022-11-07T10:11:43.969Z,2.55
2022-11-07T10:14:23.504Z,2.15
2022-11-07T10:17:04.696Z,2.65
2022-11-07T10:19:41.602Z,1.95
2022-11-07T10:22:20.288Z,2.20
2022-11-07T10:25:08.432Z,2.78
2022-11-07T10:27:36.946Z,2.65
2022-11-07T10:30:15.588Z,2.30
2022-11-07T10:32:53.856Z,2.20
2022-11-07T10:35:31.787Z,2.20
2022-11-07T10:38:00.838Z,2.53
2022-11-07T10:40:40.212Z,2.67
2022-11-07T10:43:13.344Z,2.45
2022-11-07T10:48:06.627Z,2.40
2022-11-07T10:50:33.303Z,2.38
2022-11-07T10:53:09.483Z,2.58
2022-11-07T10:55:43.835Z,2.35
2022-11-07T10:58:17.748Z,2.58
2022-11-07T11:00:45.083Z,2.00
2022-11-07T11:03:41.873Z,1.92
2022-11-07T11:06:18.319Z,2.10
2022-11-07T11:08:49.716Z,2.80
2022-11-07T11:11:19.150Z,2.33
2022-11-07T11:13:45.850Z,2.67
2022-11-07T11:16:24.863Z,2.17
2022-11-07T11:18:53.663Z,2.53
2022-11-07T11:21:20.954Z,2.28
2022-11-07T11:23:48.046Z,2.63
2022-11-07T11:26:17.174Z,2.83
2022-11-07T11:28:55.706Z,2.47
2022-11-07T11:31:35.125Z,2.58
2022-11-07T11:34:12.536Z,2.25
2022-11-07T11:36:44.924Z,2.63
2022-11-07T11:39:52.170Z,2.40
2022-11-07T11:42:34.169Z,2.28
2022-11-07T11:45:14.934Z,2.25
2022-11-07T11:47:46.241Z,2.08
2022-11-07T11:50:27.544Z,2.17
2022-11-07T11:52:53.965Z,2.15
2022-11-07T11:55:26.261Z,2.50
2022-11-07T11:58:28.005Z,2.90
2022-11-07T12:01:07.801Z,2.60
2022-11-07T12:04:06.975Z,2.63
2022-11-07T12:06:46.433Z,2.80
2022-11-07T12:09:33.866Z,2.30
2022-11-07T12:12:20.323Z,2.20
2022-11-07T12:15:00.305Z,2.72
2022-11-07T12:17:44.045Z,2.17
2022-11-07T12:23:03.147Z,2.25
2022-11-07T12:25:37.313Z,2.25
2022-11-07T12:28:22.337Z,2.70
2022-11-07T12:31:10.697Z,2.42
2022-11-07T12:33:48.657Z,2.38
2022-11-07T12:36:14.967Z,2.20
2022-11-07T12:38:52.654Z,2.55
2022-11-07T12:41:20.194Z,2.17
2022-11-07T12:43:52.172Z,2.53
2022-11-07T12:46:24.489Z,2.28
2022-11-07T12:48:58.238Z,2.40
2022-11-07T12:51:32.511Z,2.45
2022-11-07T12:54:35.939Z,2.10
2022-11-07T12:57:21.867Z,2.65
2022-11-07T13:00:18.893Z,2.05
2022-11-07T13:02:54.358Z,1.60
2022-11-07T13:05:31.295Z,2.10
2022-11-07T13:08:11.768Z,2.17
2022-11-07T13:11:03.489Z,1.85
2022-11-07T13:13:51.593Z,2.10
2022-11-07T13:16:27.529Z,2.45
2022-11-07T13:18:54.363Z,2.60
2022-11-07T13:21:21.640Z,1.55
2022-11-07T13:23:48.743Z,1.73
2022-11-07T13:26:46.328Z,2.20
2022-11-07T13:29:23.834Z,2.15
2022-11-07T13:32:09.752Z,1.88
2022-11-07T13:34:48.046Z,1.90
2022-11-07T13:37:25.423Z,1.67
2022-11-07T13:39:58.513Z,1.63
2022-11-07T13:42:29.724Z,1.90
2022-11-07T13:45:02.539Z,1.77
2022-11-07T13:47:37.333Z,2.15
2022-11-07T13:50:17.158Z,1.70
2022-11-07T13:52:53.484Z,1.70
2022-11-07T13:55:25.183Z,1.70
2022-11-07T13:58:06.732Z,2.15
2022-11-07T14:00:34.527Z,2.10
2022-11-07T14:03:01.455Z,1.50
2022-11-07T14:05:34.926Z,2.13
2022-11-07T14:10:42.768Z,1.65
2022-11-07T14:13:13.693Z,1.80
2022-11-07T14:15:49.380Z,1.90
2022-11-07T14:18:18.238Z,2.03
2022-11-07T14:20:50.289Z,1.50
2022-11-07T14:23:20.749Z,1.75
2022-11-07T14:25:58.310Z,1.90
2022-11-07T14:28:29.037Z,1.98
2022-11-07T14:30:55.431Z,2.30
2022-11-07T14:33:23.018Z,2.03
2022-11-07T14:35:51.290Z,2.03
2022-11-07T14:38:25.288Z,2.20
2022-11-07T14:40:54.440Z,1.60
2022-11-07T14:43:23.215Z,1.90
2022-11-07T14:48:42.430Z,1.92
2022-11-07T14:51:13.168Z,1.95
2022-11-07T14:53:49.898Z,1.98
2022-11-07T14:56:21.024Z,2.30
2022-11-07T14:58:47.615Z,1.90
2022-11-07T15:01:25.525Z,1.92
2022-11-07T15:03:56.197Z,2.13
2022-11-07T15:06:29.187Z,2.38
2022-11-07T15:09:04.926Z,2.33
2022-11-07T15:11:34.177Z,2.10
2022-11-07T15:14:03.043Z,2.25
2022-11-07T15:16:37.363Z,1.90
2022-11-07T15:19:05.919Z,2.20
2022-11-07T15:21:51.400Z,2.10
2022-11-07T15:24:35.237Z,1.92
2022-11-07T15:27:13.726Z,1.55
2022-11-07T15:29:50.598Z,1.70
2022-11-07T15:32:20.556Z,1.85
2022-11-07T15:37:36.671Z,1.63
2022-11-07T15:40:13.564Z,1.80
2022-11-07T15:42:39.924Z,1.83
2022-11-07T15:45:06.760Z,2.20
2022-11-07T15:47:34.211Z,1.88
2022-11-07T15:50:00.734Z,2.38
2022-11-07T15:52:27.096Z,1.65
2022-11-07T15:54:53.474Z,1.60
2022-11-07T15:57:20.182Z,1.50
2022-11-07T15:59:46.734Z,1.95
2022-11-07T16:02:17.012Z,1.75
2022-11-07T16:04:43.831Z,1.33
2022-11-07T16:07:19.713Z,2.28
2022-11-07T16:09:48.391Z,1.83
2022-11-07T16:12:19.172Z,1.80
2022-11-07T16:14:45.644Z,2.22
2022-11-07T16:17:14.999Z,1.98
2022-11-07T16:19:41.416Z,1.88
2022-11-07T16:22:11.001Z,2.13
2022-11-07T16:24:37.360Z,2.25
2022-11-07T16:27:04.253Z,3.00
2022-11-07T16:29:30.644Z,3.08
2022-11-07T16:31:57.213Z,3.13
2022-11-07T16:34:23.595Z,2.38
2022-11-07T16:36:50.339Z,1.88
2022-11-07T16:39:21.613Z,1.80
2022-11-07T16:41:50.310Z,2.40
2022-11-07T16:44:21.694Z,2.03
2022-11-07T16:46:51.227Z,1.80
2022-11-07T16:49:30.511Z,1.77
2022-11-07T16:51:57.883Z,2.00
2022-11-07T16:54:24.339Z,2.03
2022-11-07T16:56:53.949Z,1.75
2022-11-07T16:59:22.663Z,2.45
2022-11-07T17:01:50.823Z,2.08
2022-11-07T17:04:17.577Z,1.55
2022-11-07T17:06:47.366Z,1.40
2022-11-07T17:09:24.587Z,1.75
2022-11-07T17:11:51.056Z,1.92
2022-11-07T17:14:17.465Z,1.95
2022-11-07T17:16:47.403Z,1.83
2022-11-07T17:19:15.298Z,2.28
2022-11-07T17:21:48.279Z,2.67
2022-11-07T17:24:14.818Z,2.72
2022-11-07T17:26:41.405Z,2.00
2022-11-07T17:29:12.299Z,1.90
2022-11-07T17:31:39.302Z,2.10
2022-11-07T17:34:06.079Z,2.30
2022-11-07T17:36:37.800Z,1.50
2022-11-07T17:39:10.695Z,2.25
2022-11-07T17:41:38.218Z,1.90
2022-11-07T17:44:04.732Z,1.50
2022-11-07T17:46:33.405Z,2.05
2022-11-07T17:49:02.002Z,2.50
2022-11-07T17:51:28.454Z,2.05
2022-11-07T17:53:56.476Z,2.13
2022-11-07T17:56:28.133Z,2.60
2022-11-07T17:58:59.941Z,2.40
2022-11-07T18:01:32.375Z,2.35
2022-11-07T18:03:59.460Z,2.53
2022-11-07T18:06:26.988Z,2.08
2022-11-07T18:08:56.351Z,1.90
2022-11-07T18:11:26.805Z,2.67
2022-11-07T18:13:54.793Z,1.92
2022-11-07T18:16:24.267Z,1.55
2022-11-07T18:18:51.277Z,1.90
2022-11-07T18:21:18.222Z,3.20
2022-11-07T18:23:44.799Z,3.00
2022-11-07T18:26:11.199Z,2.63
2022-11-07T18:28:39.585Z,2.35
2022-11-07T18:31:12.615Z,2.28
2022-11-07T18:33:39.172Z,2.25
2022-11-07T18:36:08.152Z,2.13
2022-11-07T18:38:34.596Z,2.03
2022-11-07T18:41:03.571Z,2.05
2022-11-07T18:43:29.926Z,2.35
2022-11-07T18:45:56.838Z,2.10
2022-11-07T18:48:24.043Z,2.03
2022-11-07T18:50:51.062Z,2.05
2022-11-07T18:53:18.352Z,1.90
2022-11-07T18:55:44.739Z,1.98
2022-11-07T18:58:11.115Z,2.22
2022-11-07T19:00:37.787Z,2.33
2022-11-07T19:03:04.255Z,2.00
2022-11-07T19:05:30.774Z,2.10
2022-11-07T19:07:57.123Z,2.28
2022-11-07T19:10:23.563Z,2.40
2022-11-07T19:12:49.917Z,1.88
2022-11-07T19:15:16.337Z,2.30
2022-11-07T19:17:42.781Z,1.90
2022-11-07T19:20:09.816Z,2.25
2022-11-07T19:22:36.214Z,2.78
2022-11-07T19:25:02.839Z,2.58
2022-11-07T19:27:29.616Z,2.65
2022-11-07T19:29:56.345Z,2.10
2022-11-07T19:32:22.741Z,2.67
2022-11-07T19:34:49.675Z,2.35
2022-11-07T19:37:16.022Z,2.78
2022-11-07T19:39:42.516Z,3.10
2022-11-07T19:42:08.866Z,2.33
2022-11-07T19:44:36.242Z,3.13
2022-11-07T19:47:02.631Z,2.90
2022-11-07T19:49:29.032Z,2.90
2022-11-07T19:51:55.604Z,2.20
2022-11-07T19:54:22.011Z,2.42
2022-11-07T19:56:51.880Z,2.53
2022-11-07T19:59:21.096Z,2.90
2022-11-07T20:02:04.246Z,2.47
2022-11-07T20:04:33.825Z,2.78
2022-11-07T20:07:01.182Z,2.40
2022-11-07T20:09:27.606Z,2.70
2022-11-07T20:11:54.029Z,3.00
2022-11-07T20:14:20.398Z,1.73
2022-11-07T20:16:46.884Z,2.17
2022-11-07T20:19:13.538Z,2.50
2022-11-07T20:21:40.192Z,2.28
2022-11-07T20:24:08.960Z,2.33
2022-11-07T20:26:37.537Z,2.30
2022-11-07T20:29:05.066Z,2.53
2022-11-07T20:31:41.585Z,2.47
2022-11-07T20:34:09.811Z,2.72
2022-11-07T20:36:36.211Z,2.85
2022-11-07T20:39:03.899Z,2.20
2022-11-07T20:41:30.600Z,3.08
2022-11-07T20:44:03.388Z,2.28
2022-11-07T20:46:32.018Z,2.58
2022-11-07T20:48:59.819Z,2.60
2022-11-07T20:51:26.265Z,2.08
2022-11-07T20:53:53.146Z,2.22
2022-11-07T20:56:21.645Z,2.30
2022-11-07T20:58:48.891Z,2.28
2022-11-07T21:01:37.562Z,2.40
2022-11-07T21:04:09.104Z,2.50
2022-11-07T21:06:35.566Z,2.95
2022-11-07T21:09:02.570Z,2.25
2022-11-07T21:11:30.381Z,2.47
2022-11-07T21:13:56.926Z,2.00
2022-11-07T21:16:24.351Z,2.78
2022-11-07T21:18:52.515Z,2.00
2022-11-07T21:21:22.769Z,2.42
2022-11-07T21:23:50.873Z,2.40
2022-11-07T21:26:23.718Z,2.90
2022-11-07T21:28:50.481Z,2.50
2022-11-07T21:31:21.734Z,2.50
2022-11-07T21:33:48.220Z,2.85
2022-11-07T21:36:17.752Z,2.30
2022-11-07T21:38:46.963Z,2.03
2022-11-07T21:41:14.750Z,2.25
2022-11-07T21:43:41.584Z,2.20
2022-11-07T21:46:23.564Z,2.40
2022-11-07T21:48:50.696Z,2.65
2022-11-07T21:51:22.423Z,2.20
2022-11-07T21:53:49.347Z,2.30
2022-11-07T21:56:22.534Z,2.72
2022-11-07T21:58:50.938Z,2.75
2022-11-07T22:01:19.191Z,2.60
2022-11-07T22:06:34.290Z,2.28
2022-11-07T22:09:01.024Z,2.20
2022-11-07T22:11:27.411Z,2.10
2022-11-07T22:13:53.797Z,1.80
2022-11-07T22:16:22.039Z,1.60
2022-11-07T22:18:49.098Z,2.38
2022-11-07T22:21:19.019Z,2.45
2022-11-07T22:23:45.457Z,2.55
2022-11-07T22:26:17.765Z,2.33
2022-11-07T22:28:46.019Z,2.17
2022-11-07T22:31:15.465Z,2.33
2022-11-07T22:33:41.914Z,2.75
2022-11-07T22:36:10.026Z,2.45
2022-11-07T22:38:37.959Z,2.63
2022-11-07T22:41:23.904Z,1.98
2022-11-07T22:43:51.437Z,2.55
2022-11-07T22:46:21.132Z,2.38
2022-11-07T22:48:48.965Z,2.28
2022-11-07T22:51:21.713Z,2.70
2022-11-07T22:53:54.513Z,2.90
2022-11-07T22:56:20.877Z,3.13
2022-11-07T22:58:47.679Z,3.97
2022-11-07T23:01:23.383Z,3.50
2022-11-07T23:03:50.966Z,3.72
2022-11-07T23:06:18.418Z,3.88
2022-11-07T23:08:46.055Z,3.28
2022-11-07T23:11:45.848Z,3.38
2022-11-07T23:14:14.841Z,3.53
2022-11-07T23:16:47.878Z,3.55
2022-11-07T23:19:16.251Z,3.40
2022-11-07T23:21:42.984Z,3.30
2022-11-07T23:24:09.674Z,3.38
2022-11-07T23:26:36.350Z,2.90
2022-11-07T23:29:10.380Z,3.50
2022-11-07T23:31:39.188Z,3.80
2022-11-07T23:34:05.694Z,3.47
2022-11-07T23:36:32.131Z,4.05
2022-11-07T23:39:04.636Z,4.20
2022-11-07T23:41:31.308Z,4.00
2022-11-07T23:43:59.065Z,5.15
2022-11-07T23:46:44.281Z,3.88
2022-11-07T23:49:46.431Z,3.55
2022-11-07T23:52:13.331Z,3.63
2022-11-07T23:54:58.112Z,3.70
2022-11-07T23:57:24.714Z,3.80
